createdAt,value
2019-05-05T00:00:14.361Z,100042.49
2019-05-05T00:03:01.523Z,100039.42
2019-05-05T00:05:36.962Z,100046.22
2019-05-05T00:08:10.664Z,100049.06
2019-05-05T00:11:09.571Z,100047.39
2019-05-05T00:13:50.155Z,100053.13
2019-05-05T00:16:44.382Z,100052.32
2019-05-05T00:19:33.042Z,100053.44
2019-05-05T00:22:06.364Z,100046.20
2019-05-05T00:24:39.664Z,100043.41
2019-05-05T00:27:14.811Z,100050.19
2019-05-05T00:29:50.514Z,100049.98
2019-05-05T00:32:24.526Z,100052.73
2019-05-05T00:34:57.579Z,100057.34
2019-05-05T00:37:30.208Z,100068.14
2019-05-05T00:40:04.862Z,100065.33
2019-05-05T00:42:38.212Z,100064.72
2019-05-05T00:45:15.043Z,100070.48
2019-05-05T00:47:54.641Z,100072.62
2019-05-05T00:50:27.424Z,100071.19
2019-05-05T00:53:00.941Z,100077.69
2019-05-05T00:55:35.005Z,100078.16
2019-05-05T00:58:07.646Z,100081.72
2019-05-05T01:00:50.008Z,100079.70
2019-05-05T01:03:24.975Z,100076.53
2019-05-05T01:06:15.675Z,100078.92
2019-05-05T01:08:48.383Z,100076.27
2019-05-05T01:11:21.176Z,100080.83
2019-05-05T01:13:54.736Z,100079.12
2019-05-05T01:16:27.637Z,100083.06
2019-05-05T01:19:00.843Z,100081.84
2019-05-05T01:21:34.892Z,100079.56
2019-05-05T01:24:08.172Z,100086.25
2019-05-05T01:26:44.734Z,100085.67
2019-05-05T01:29:17.943Z,100085.95
2019-05-05T01:31:54.361Z,100086.16
2019-05-05T01:34:31.602Z,100085.37
2019-05-05T01:37:15.172Z,100086.03
2019-05-05T01:40:04.975Z,100087.62
2019-05-05T01:42:37.830Z,100085.23
2019-05-05T01:45:14.950Z,100091.57
2019-05-05T01:47:48.555Z,100091.44
2019-05-05T01:50:24.665Z,100091.81
2019-05-05T01:52:58.791Z,100096.61
2019-05-05T01:55:31.987Z,100094.80
2019-05-05T01:58:04.940Z,100093.31
2019-05-05T02:00:38.326Z,100097.14
2019-05-05T02:03:12.049Z,100098.41
2019-05-05T02:05:45.272Z,100095.93
2019-05-05T02:08:19.173Z,100100.48
2019-05-05T02:10:52.194Z,100096.98
2019-05-05T02:13:25.194Z,100090.98
2019-05-05T02:15:59.249Z,100093.16
2019-05-05T02:18:34.379Z,100091.82
2019-05-05T02:21:08.631Z,100090.48
2019-05-05T02:23:41.349Z,100094.77
2019-05-05T02:26:15.280Z,100099.30
2019-05-05T02:29:04.910Z,100102.05
2019-05-05T02:31:57.640Z,100105.34
2019-05-05T02:34:36.357Z,100107.94
2019-05-05T02:37:09.111Z,100103.34
2019-05-05T02:39:48.281Z,100103.88
2019-05-05T02:42:30.777Z,100098.97
2019-05-05T02:45:10.992Z,100102.36
2019-05-05T02:48:14.895Z,100106.37
2019-05-05T02:51:02.671Z,100103.09
2019-05-05T02:53:48.776Z,100099.88
2019-05-05T02:56:30.498Z,100102.73
2019-05-05T02:59:14.720Z,100104.94
2019-05-05T03:01:53.850Z,100102.34
2019-05-05T03:04:27.657Z,100102.25
2019-05-05T03:07:04.749Z,100103.61
2019-05-05T03:09:38.940Z,100106.59
2019-05-05T03:12:14.898Z,100106.87
2019-05-05T03:14:53.694Z,100108.16
2019-05-05T03:17:28.534Z,100102.96
2019-05-05T03:20:04.057Z,100105.32
2019-05-05T03:22:36.926Z,100110.55
2019-05-05T03:25:09.634Z,100111.47
2019-05-05T03:27:44.486Z,100109.97
2019-05-05T03:30:17.908Z,100105.74
2019-05-05T03:32:50.678Z,100102.73
2019-05-05T03:35:24.246Z,100101.36
2019-05-05T03:37:56.999Z,100110.75
2019-05-05T03:40:34.493Z,100109.23
2019-05-05T03:43:16.164Z,100119.50
2019-05-05T03:45:53.973Z,100120.95
2019-05-05T03:48:26.893Z,100122.64
2019-05-05T03:50:59.726Z,100117.27
2019-05-05T03:53:33.768Z,100114.82
2019-05-05T03:56:06.645Z,100114.37
2019-05-05T03:58:41.048Z,100114.67
2019-05-05T04:01:43.980Z,100119.28
2019-05-05T04:04:24.412Z,100114.13
2019-05-05T04:06:57.558Z,100121.77
2019-05-05T04:09:38.316Z,100125.52
2019-05-05T04:12:13.720Z,100139.33
2019-05-05T04:14:46.954Z,100136.72
2019-05-05T04:17:28.258Z,100138.42
2019-05-05T04:20:25.039Z,100142.58
2019-05-05T04:22:58.444Z,100140.70
2019-05-05T04:25:34.961Z,100142.58
2019-05-05T04:28:07.916Z,100144.34
2019-05-05T04:30:40.460Z,100149.27
2019-05-05T04:33:14.516Z,100151.41
2019-05-05T04:35:47.228Z,100153.42
2019-05-05T04:38:20.254Z,100153.30
2019-05-05T04:40:54.469Z,100162.28
2019-05-05T04:43:27.335Z,100163.39
2019-05-05T04:46:00.039Z,100166.95
2019-05-05T04:48:43.996Z,100165.55
2019-05-05T04:51:21.537Z,100168.25
2019-05-05T04:54:04.412Z,100175.09
2019-05-05T04:56:37.167Z,100175.61
2019-05-05T04:59:09.744Z,100179.35
2019-05-05T05:01:44.012Z,100177.14
2019-05-05T05:04:28.775Z,100181.06
2019-05-05T05:07:04.562Z,100179.43
2019-05-05T05:09:37.474Z,100185.56
2019-05-05T05:12:10.630Z,100188.16
2019-05-05T05:14:44.189Z,100189.67
2019-05-05T05:17:28.269Z,100187.58
2019-05-05T05:20:03.765Z,100190.87
2019-05-05T05:22:40.637Z,100196.70
2019-05-05T05:25:14.591Z,100197.48
2019-05-05T05:27:48.146Z,100196.64
2019-05-05T05:30:25.448Z,100201.27
2019-05-05T05:32:59.889Z,100204.83
2019-05-05T05:35:33.648Z,100204.48
2019-05-05T05:38:06.360Z,100204.61
2019-05-05T05:40:49.119Z,100206.89
2019-05-05T05:43:37.959Z,100213.62
2019-05-05T05:46:30.112Z,100216.50
2019-05-05T05:49:09.920Z,100222.03
2019-05-05T05:51:44.598Z,100224.39
2019-05-05T05:54:17.314Z,100236.97
2019-05-05T05:56:53.756Z,100236.61
2019-05-05T05:59:26.847Z,100232.02
2019-05-05T06:02:09.826Z,100239.01
2019-05-05T06:04:46.870Z,100235.38
2019-05-05T06:07:21.284Z,100235.60
2019-05-05T06:09:54.478Z,100237.91
2019-05-05T06:12:27.043Z,100240.50
2019-05-05T06:14:59.650Z,100245.46
2019-05-05T06:17:34.416Z,100246.91
2019-05-05T06:20:08.078Z,100250.16
2019-05-05T06:22:40.641Z,100256.08
2019-05-05T06:25:19.033Z,100253.38
2019-05-05T06:27:54.105Z,100263.33
2019-05-05T06:30:26.953Z,100263.62
2019-05-05T06:33:00.180Z,100266.53
2019-05-05T06:35:33.860Z,100268.84
2019-05-05T06:38:06.923Z,100276.23
2019-05-05T06:40:55.268Z,100278.45
2019-05-05T06:43:51.602Z,100274.63
2019-05-05T06:46:29.095Z,100278.73
2019-05-05T06:49:01.732Z,100281.07
2019-05-05T06:51:35.334Z,100286.31
2019-05-05T06:54:08.491Z,100277.69
2019-05-05T06:56:44.386Z,100278.95
2019-05-05T06:59:19.354Z,100276.12
2019-05-05T07:01:53.603Z,100279.62
2019-05-05T07:04:28.461Z,100283.53
2019-05-05T07:07:01.117Z,100286.52
2019-05-05T07:09:34.864Z,100285.23
2019-05-05T07:12:08.421Z,100286.56
2019-05-05T07:14:41.895Z,100288.04
2019-05-05T07:17:15.228Z,100280.75
2019-05-05T07:19:47.971Z,100285.03
2019-05-05T07:22:21.472Z,100282.62
2019-05-05T07:24:54.385Z,100283.62
2019-05-05T07:27:27.835Z,100281.52
2019-05-05T07:30:04.763Z,100287.47
2019-05-05T07:32:38.691Z,100287.60
2019-05-05T07:35:24.692Z,100290.45
2019-05-05T07:37:58.156Z,100287.58
2019-05-05T07:40:34.490Z,100286.65
2019-05-05T07:43:07.882Z,100284.55
2019-05-05T07:45:44.561Z,100284.52
2019-05-05T07:48:17.688Z,100295.47
2019-05-05T07:51:01.227Z,100284.03
2019-05-05T07:53:37.589Z,100280.01
2019-05-05T07:56:14.475Z,100281.59
2019-05-05T07:58:47.293Z,100278.70
2019-05-05T08:01:20.050Z,100275.09
2019-05-05T08:03:54.068Z,100274.31
2019-05-05T08:06:29.547Z,100275.05
2019-05-05T08:09:05.645Z,100275.63
2019-05-05T08:11:39.134Z,100278.92
2019-05-05T08:14:11.766Z,100283.33
2019-05-05T08:16:49.908Z,100284.47
2019-05-05T08:19:44.092Z,100288.17
2019-05-05T08:22:28.678Z,100291.08
2019-05-05T08:25:14.623Z,100285.84
2019-05-05T08:28:09.333Z,100283.05
2019-05-05T08:31:03.991Z,100277.78
2019-05-05T08:33:38.010Z,100277.42
2019-05-05T08:36:10.774Z,100284.91
2019-05-05T08:38:44.799Z,100290.27
2019-05-05T08:41:18.301Z,100284.48
2019-05-05T08:43:51.648Z,100280.27
2019-05-05T08:46:25.956Z,100282.68
2019-05-05T08:49:01.778Z,100278.47
2019-05-05T08:51:34.392Z,100282.59
2019-05-05T08:54:07.917Z,100286.08
2019-05-05T08:56:41.129Z,100281.92
2019-05-05T08:59:18.756Z,100282.92
2019-05-05T09:01:51.373Z,100284.86
2019-05-05T09:04:24.636Z,100290.94
2019-05-05T09:06:59.450Z,100287.73
2019-05-05T09:09:33.661Z,100287.66
2019-05-05T09:12:10.124Z,100289.41
2019-05-05T09:14:45.049Z,100296.89
2019-05-05T09:17:18.395Z,100288.36
2019-05-05T09:19:53.686Z,100297.36
2019-05-05T09:22:27.979Z,100292.74
2019-05-05T09:25:13.703Z,100294.96
2019-05-05T09:27:51.168Z,100288.10
2019-05-05T09:30:39.371Z,100287.66
2019-05-05T09:33:18.358Z,100280.45
2019-05-05T09:35:54.152Z,100280.42
2019-05-05T09:38:30.164Z,100275.58
2019-05-05T09:41:03.857Z,100275.88
2019-05-05T09:43:37.265Z,100276.99
2019-05-05T09:46:15.868Z,100278.16
2019-05-05T09:48:48.796Z,100278.06
2019-05-05T09:51:24.271Z,100276.44
2019-05-05T09:54:10.239Z,100278.80
2019-05-05T09:56:48.995Z,100280.79
2019-05-05T09:59:24.408Z,100292.78
2019-05-05T10:02:01.155Z,100285.03
2019-05-05T10:04:36.685Z,100295.38
2019-05-05T10:07:09.306Z,100303.40
2019-05-05T10:09:45.058Z,100307.16
2019-05-05T10:12:17.751Z,100310.66
2019-05-05T10:14:54.183Z,100311.86
2019-05-05T10:17:27.390Z,100309.47
2019-05-05T10:20:01.151Z,100306.38
2019-05-05T10:22:34.382Z,100308.58
2019-05-05T10:25:13.909Z,100310.36
2019-05-05T10:27:48.292Z,100303.03
2019-05-05T10:30:21.209Z,100305.31
2019-05-05T10:32:55.143Z,100302.02
2019-05-05T10:35:27.988Z,100300.56
2019-05-05T10:38:00.730Z,100300.55
2019-05-05T10:40:36.453Z,100299.11
2019-05-05T10:43:10.803Z,100302.10
2019-05-05T10:45:48.874Z,100302.20
2019-05-05T10:48:24.122Z,100307.60
2019-05-05T10:50:57.293Z,100315.63
2019-05-05T10:53:31.556Z,100308.27
2019-05-05T10:56:04.521Z,100308.31
2019-05-05T10:58:40.594Z,100308.20
2019-05-05T11:01:14.556Z,100309.38
2019-05-05T11:03:47.650Z,100310.67
2019-05-05T11:06:28.565Z,100314.21
2019-05-05T11:09:07.791Z,100306.20
2019-05-05T11:11:43.887Z,100309.62
2019-05-05T11:14:19.202Z,100323.75
2019-05-05T11:16:54.498Z,100343.55
2019-05-05T11:19:29.194Z,100338.05
2019-05-05T11:22:03.404Z,100325.27
2019-05-05T11:24:40.040Z,100322.91
2019-05-05T11:27:17.969Z,100328.36
2019-05-05T11:30:04.127Z,100330.16
2019-05-05T11:32:44.160Z,100327.91
2019-05-05T11:35:20.579Z,100324.26
2019-05-05T11:37:54.995Z,100331.30
2019-05-05T11:40:32.601Z,100333.61
2019-05-05T11:43:07.838Z,100324.22
2019-05-05T11:45:43.689Z,100322.77
2019-05-05T11:48:24.364Z,100316.71
2019-05-05T11:50:59.084Z,100318.64
2019-05-05T11:53:35.300Z,100314.77
2019-05-05T11:56:11.870Z,100317.91
2019-05-05T11:58:45.578Z,100310.77
2019-05-05T12:01:18.532Z,100311.17
2019-05-05T12:03:53.561Z,100308.44
2019-05-05T12:06:27.729Z,100304.76
2019-05-05T12:09:14.064Z,100303.47
2019-05-05T12:11:47.043Z,100297.66
2019-05-05T12:14:27.979Z,100293.58
2019-05-05T12:17:04.553Z,100290.83
2019-05-05T12:19:38.810Z,100302.77
2019-05-05T12:22:19.785Z,100309.10
2019-05-05T12:24:54.860Z,100313.89
2019-05-05T12:27:37.434Z,100313.33
2019-05-05T12:30:14.254Z,100326.49
2019-05-05T12:32:48.072Z,100336.59
2019-05-05T12:35:23.551Z,100339.41
2019-05-05T12:37:56.586Z,100339.14
2019-05-05T12:40:30.484Z,100353.52
2019-05-05T12:43:03.729Z,100359.65
2019-05-05T12:45:43.959Z,100359.05
2019-05-05T12:48:34.465Z,100356.81
2019-05-05T12:51:08.134Z,100359.16
2019-05-05T12:53:41.102Z,100355.19
2019-05-05T12:56:14.643Z,100360.06
2019-05-05T12:58:49.816Z,100352.59
2019-05-05T13:01:33.560Z,100344.42
2019-05-05T13:04:06.818Z,100343.52
2019-05-05T13:06:41.952Z,100347.09
2019-05-05T13:09:16.497Z,100344.34
2019-05-05T13:11:50.095Z,100343.88
2019-05-05T13:14:23.024Z,100336.97
2019-05-05T13:16:57.426Z,100341.41
2019-05-05T13:19:52.887Z,100337.30
2019-05-05T13:22:49.731Z,100336.53
2019-05-05T13:25:28.722Z,100339.36
2019-05-05T13:28:07.558Z,100337.39
2019-05-05T13:30:43.800Z,100331.83
2019-05-05T13:33:16.480Z,100327.00
2019-05-05T13:35:51.078Z,100328.27
2019-05-05T13:38:25.381Z,100323.77
2019-05-05T13:41:01.214Z,100316.00
2019-05-05T13:43:37.230Z,100304.73
2019-05-05T13:46:16.628Z,100308.77
2019-05-05T13:48:49.345Z,100307.03
2019-05-05T13:51:24.083Z,100297.38
2019-05-05T13:54:01.194Z,100306.54
2019-05-05T13:56:35.748Z,100298.47
2019-05-05T13:59:10.673Z,100292.40
2019-05-05T14:01:46.846Z,100287.50
2019-05-05T14:04:21.566Z,100288.44
2019-05-05T14:06:58.004Z,100282.84
2019-05-05T14:09:32.374Z,100284.95
2019-05-05T14:12:10.940Z,100276.77
2019-05-05T14:14:46.830Z,100275.30
2019-05-05T14:17:46.616Z,100271.53
2019-05-05T14:20:19.940Z,100277.58
2019-05-05T14:22:54.914Z,100273.38
2019-05-05T14:25:30.482Z,100260.73
2019-05-05T14:28:04.537Z,100274.14
2019-05-05T14:30:59.728Z,100279.81
2019-05-05T14:33:57.006Z,100280.71
2019-05-05T14:36:57.734Z,100282.83
2019-05-05T14:39:38.437Z,100276.89
2019-05-05T14:42:17.976Z,100278.20
2019-05-05T14:44:54.347Z,100280.13
2019-05-05T14:47:28.512Z,100280.89
2019-05-05T14:50:04.575Z,100271.88
2019-05-05T14:52:44.359Z,100280.47
2019-05-05T14:55:18.863Z,100285.47
2019-05-05T14:57:56.050Z,100279.00
2019-05-05T15:00:33.695Z,100276.27
2019-05-05T15:03:08.514Z,100267.55
2019-05-05T15:05:55.563Z,100277.50
2019-05-05T15:08:35.599Z,100275.13
2019-05-05T15:11:16.570Z,100281.80
2019-05-05T15:13:49.302Z,100287.00
2019-05-05T15:16:24.544Z,100290.33
2019-05-05T15:19:07.407Z,100298.19
2019-05-05T15:21:41.848Z,100303.05
2019-05-05T15:24:15.001Z,100301.39
2019-05-05T15:26:52.706Z,100312.98
2019-05-05T15:29:31.670Z,100306.20
2019-05-05T15:32:04.928Z,100304.52
2019-05-05T15:34:41.217Z,100303.60
2019-05-05T15:38:24.243Z,100303.20
2019-05-05T15:41:05.026Z,100303.37
2019-05-05T15:43:40.637Z,100297.84
2019-05-05T15:46:16.025Z,100302.47
2019-05-05T15:48:51.425Z,100297.29
2019-05-05T15:51:25.666Z,100295.17
2019-05-05T15:54:06.942Z,100295.84
2019-05-05T15:57:02.331Z,100296.47
2019-05-05T15:59:38.979Z,100305.47
2019-05-05T16:02:18.601Z,100301.07
2019-05-05T16:04:55.484Z,100305.25
2019-05-05T16:07:28.235Z,100302.36
2019-05-05T16:10:07.961Z,100303.04
2019-05-05T16:12:41.703Z,100307.67
2019-05-05T16:15:41.494Z,100307.02
2019-05-05T16:18:23.902Z,100310.12
2019-05-05T16:21:07.746Z,100315.61
2019-05-05T16:23:46.100Z,100320.42
2019-05-05T16:26:19.468Z,100312.32
2019-05-05T16:28:57.149Z,100317.66
2019-05-05T16:31:30.639Z,100317.03
2019-05-05T16:34:07.221Z,100323.32
2019-05-05T16:36:44.425Z,100318.13
2019-05-05T16:39:18.427Z,100319.94
2019-05-05T16:41:53.505Z,100315.41
2019-05-05T16:44:33.994Z,100314.07
2019-05-05T16:47:08.494Z,100315.26
2019-05-05T16:49:44.751Z,100318.73
2019-05-05T16:52:27.625Z,100315.24
2019-05-05T16:55:18.738Z,100313.52
2019-05-05T16:57:55.104Z,100314.17
2019-05-05T17:00:28.548Z,100313.13
2019-05-05T17:03:04.188Z,100311.91
2019-05-05T17:05:39.982Z,100306.53
2019-05-05T17:08:16.170Z,100306.92
2019-05-05T17:10:53.999Z,100312.45
2019-05-05T17:13:50.098Z,100309.53
2019-05-05T17:16:55.446Z,100306.38
2019-05-05T17:19:47.832Z,100315.56
2019-05-05T17:22:47.497Z,100313.86
2019-05-05T17:25:20.201Z,100314.17
2019-05-05T17:27:54.548Z,100317.99
2019-05-05T17:30:34.227Z,100315.98
2019-05-05T17:33:07.475Z,100316.50
2019-05-05T17:35:41.676Z,100321.27
2019-05-05T17:38:15.933Z,100321.70
2019-05-05T17:40:55.463Z,100317.46
2019-05-05T17:43:41.014Z,100321.52
2019-05-05T17:46:49.789Z,100318.61
2019-05-05T17:49:57.276Z,100316.33
2019-05-05T17:52:50.786Z,100318.28
2019-05-05T17:55:44.349Z,100316.66
2019-05-05T17:58:17.878Z,100321.02
2019-05-05T18:00:57.137Z,100328.81
2019-05-05T18:03:31.016Z,100322.02
2019-05-05T18:06:24.243Z,100326.69
2019-05-05T18:09:19.771Z,100328.14
2019-05-05T18:12:20.824Z,100336.89
2019-05-05T18:14:56.982Z,100341.50
2019-05-05T18:17:37.534Z,100347.86
2019-05-05T18:20:11.224Z,100351.42
2019-05-05T18:22:46.175Z,100351.57
2019-05-05T18:25:20.557Z,100350.26
2019-05-05T18:27:58.453Z,100348.81
2019-05-05T18:30:33.453Z,100349.80
2019-05-05T18:33:09.645Z,100348.14
2019-05-05T18:35:45.435Z,100350.42
2019-05-05T18:38:18.975Z,100351.80
2019-05-05T18:40:54.689Z,100354.52
2019-05-05T18:43:40.596Z,100355.45
2019-05-05T18:46:13.694Z,100359.95
2019-05-05T18:48:48.839Z,100361.36
2019-05-05T18:51:24.129Z,100365.47
2019-05-05T18:53:57.464Z,100364.56
2019-05-05T18:56:34.586Z,100365.39
2019-05-05T18:59:08.540Z,100368.12
2019-05-05T19:01:54.953Z,100372.07
2019-05-05T19:04:42.718Z,100367.27
2019-05-05T19:07:24.701Z,100372.51
2019-05-05T19:10:00.105Z,100384.45
2019-05-05T19:12:34.711Z,100382.43
2019-05-05T19:15:13.604Z,100384.88
2019-05-05T19:17:47.557Z,100385.23
2019-05-05T19:20:31.123Z,100384.64
2019-05-05T19:23:06.796Z,100392.52
2019-05-05T19:25:39.584Z,100395.80
2019-05-05T19:28:14.219Z,100397.63
2019-05-05T19:30:49.686Z,100399.47
2019-05-05T19:33:24.607Z,100398.64
2019-05-05T19:36:00.435Z,100405.92
2019-05-05T19:38:37.309Z,100401.45
2019-05-05T19:41:14.381Z,100403.69
2019-05-05T19:43:54.695Z,100403.12
2019-05-05T19:46:43.998Z,100407.00
2019-05-05T19:49:19.574Z,100402.89
2019-05-05T19:51:54.127Z,100411.64
2019-05-05T19:54:27.694Z,100409.39
2019-05-05T19:57:03.837Z,100414.89
2019-05-05T19:59:44.697Z,100417.52
2019-05-05T20:02:23.613Z,100417.48
2019-05-05T20:05:04.273Z,100416.85
2019-05-05T20:07:39.715Z,100412.66
2019-05-05T20:10:14.725Z,100417.84
2019-05-05T20:12:54.012Z,100411.42
2019-05-05T20:15:37.043Z,100413.45
2019-05-05T20:18:11.163Z,100418.16
2019-05-05T20:20:44.658Z,100416.31
2019-05-05T20:23:18.414Z,100423.95
2019-05-05T20:25:53.732Z,100423.68
2019-05-05T20:28:30.860Z,100422.77
2019-05-05T20:31:05.899Z,100424.01
2019-05-05T20:33:47.819Z,100429.23
2019-05-05T20:36:25.511Z,100428.24
2019-05-05T20:38:59.893Z,100427.93
2019-05-05T20:41:36.201Z,100431.24
2019-05-05T20:44:09.271Z,100429.69
2019-05-05T20:49:40.353Z,100432.92
2019-05-05T20:52:14.136Z,100433.63
2019-05-05T20:54:46.962Z,100438.62
2019-05-05T20:57:21.926Z,100443.66
2019-05-05T20:59:55.378Z,100447.54
2019-05-05T21:02:28.589Z,100452.33
2019-05-05T21:05:14.604Z,100451.65
2019-05-05T21:07:49.180Z,100449.12
2019-05-05T21:10:24.163Z,100450.70
2019-05-05T21:12:57.582Z,100457.62
2019-05-05T21:15:30.403Z,100446.05
2019-05-05T21:18:04.983Z,100451.27
2019-05-05T21:20:40.446Z,100449.95
2019-05-05T21:23:24.688Z,100452.64
2019-05-05T21:26:05.123Z,100450.58
2019-05-05T21:28:39.715Z,100451.88
2019-05-05T21:31:17.651Z,100451.14
2019-05-05T21:33:51.920Z,100449.88
2019-05-05T21:36:25.635Z,100447.38
2019-05-05T21:38:58.293Z,100447.46
2019-05-05T21:41:33.950Z,100449.91
2019-05-05T21:44:07.792Z,100448.81
2019-05-05T21:46:40.563Z,100448.68
2019-05-05T21:49:14.242Z,100449.81
2019-05-05T21:51:58.298Z,100451.38
2019-05-05T21:54:38.563Z,100452.12
2019-05-05T21:57:30.748Z,100458.39
2019-05-05T22:00:11.046Z,100458.57
2019-05-05T22:02:45.248Z,100459.86
2019-05-05T22:05:20.193Z,100460.30
2019-05-05T22:07:56.694Z,100460.62
2019-05-05T22:10:31.411Z,100459.53
2019-05-05T22:13:04.980Z,100461.31
2019-05-05T22:15:38.285Z,100463.32
2019-05-05T22:18:14.439Z,100459.99
2019-05-05T22:20:59.723Z,100461.97
2019-05-05T22:23:34.019Z,100465.17
2019-05-05T22:26:15.230Z,100461.21
2019-05-05T22:28:49.884Z,100459.66
2019-05-05T22:31:23.816Z,100457.62
2019-05-05T22:33:56.608Z,100458.73
2019-05-05T22:36:29.984Z,100456.98
2019-05-05T22:39:05.808Z,100452.52
2019-05-05T22:41:39.444Z,100452.80
2019-05-05T22:44:14.588Z,100453.56
2019-05-05T22:46:48.480Z,100449.41
2019-05-05T22:49:23.951Z,100452.83
2019-05-05T22:51:57.366Z,100458.05
2019-05-05T22:54:30.671Z,100457.20
2019-05-05T22:57:04.706Z,100463.64
2019-05-05T22:59:38.213Z,100459.14
2019-05-05T23:02:11.040Z,100460.97
2019-05-05T23:04:57.571Z,100458.67
2019-05-05T23:07:31.793Z,100461.56
2019-05-05T23:10:11.197Z,100459.59
2019-05-05T23:12:47.410Z,100457.52
2019-05-05T23:15:25.219Z,100456.77
2019-05-05T23:18:07.897Z,100453.16
2019-05-05T23:20:57.359Z,100454.09
2019-05-05T23:23:39.296Z,100450.87
2019-05-05T23:26:14.960Z,100452.95
2019-05-05T23:28:49.036Z,100448.95
2019-05-05T23:31:23.971Z,100450.50
2019-05-05T23:33:56.952Z,100451.80
2019-05-05T23:36:34.006Z,100453.92
2019-05-05T23:39:10.261Z,100456.52
2019-05-05T23:41:43.073Z,100455.84
2019-05-05T23:44:15.983Z,100453.75
2019-05-05T23:46:49.186Z,100452.54
2019-05-05T23:49:25.141Z,100455.26
2019-05-05T23:52:00.245Z,100459.56
2019-05-05T23:54:34.183Z,100459.93
2019-05-05T23:57:06.905Z,100460.32
2019-05-05T23:59:44.077Z,100460.56
